sensor_id;sensor_type;location;lat;lon;timestamp;P1;durP1;ratioP1;P2;durP2;ratioP2
67554;SDS011;54385;53.516;49.456;2023-06-22T00:01:23;4.57;;;1.90;;
67554;SDS011;54385;53.516;49.456;2023-06-22T00:03:50;2.90;;;1.77;;
67554;SDS011;54385;53.516;49.456;2023-06-22T00:06:17;3.72;;;1.92;;
67554;SDS011;54385;53.516;49.456;2023-06-22T00:08:44;4.57;;;1.90;;
67554;SDS011;54385;53.516;49.456;2023-06-22T00:11:11;4.43;;;2.15;;
67554;SDS011;54385;53.516;49.456;2023-06-22T00:13:38;3.78;;;2.05;;
67554;SDS011;54385;53.516;49.456;2023-06-22T00:16:05;3.38;;;2.00;;
67554;SDS011;54385;53.516;49.456;2023-06-22T00:18:32;4.28;;;2.03;;
67554;SDS011;54385;53.516;49.456;2023-06-22T00:20:59;3.22;;;2.00;;
67554;SDS011;54385;53.516;49.456;2023-06-22T00:23:26;2.83;;;1.90;;
67554;SDS011;54385;53.516;49.456;2023-06-22T00:25:53;3.97;;;2.00;;
67554;SDS011;54385;53.516;49.456;2023-06-22T00:28:20;3.38;;;1.83;;
67554;SDS011;54385;53.516;49.456;2023-06-22T00:30:48;3.20;;;1.75;;
67554;SDS011;54385;53.516;49.456;2023-06-22T00:33:15;4.55;;;2.00;;
67554;SDS011;54385;53.516;49.456;2023-06-22T00:35:42;3.05;;;2.00;;
67554;SDS011;54385;53.516;49.456;2023-06-22T00:38:09;3.00;;;1.70;;
67554;SDS011;54385;53.516;49.456;2023-06-22T00:40:37;3.95;;;2.00;;
67554;SDS011;54385;53.516;49.456;2023-06-22T00:43:04;4.00;;;2.10;;
67554;SDS011;54385;53.516;49.456;2023-06-22T00:45:31;3.97;;;1.90;;
67554;SDS011;54385;53.516;49.456;2023-06-22T00:47:58;3.28;;;1.92;;
67554;SDS011;54385;53.516;49.456;2023-06-22T00:50:30;3.63;;;1.98;;
67554;SDS011;54385;53.516;49.456;2023-06-22T00:53:05;2.92;;;1.83;;
67554;SDS011;54385;53.516;49.456;2023-06-22T00:55:41;3.03;;;1.70;;
67554;SDS011;54385;53.516;49.456;2023-06-22T00:58:13;2.97;;;1.63;;
67554;SDS011;54385;53.516;49.456;2023-06-22T01:00:40;3.13;;;1.70;;
67554;SDS011;54385;53.516;49.456;2023-06-22T01:03:08;3.47;;;1.90;;
67554;SDS011;54385;53.516;49.456;2023-06-22T01:05:35;3.05;;;1.92;;
67554;SDS011;54385;53.516;49.456;2023-06-22T01:10:54;2.72;;;1.40;;
67554;SDS011;54385;53.516;49.456;2023-06-22T01:16:00;2.88;;;1.90;;
67554;SDS011;54385;53.516;49.456;2023-06-22T01:18:32;3.67;;;2.00;;
67554;SDS011;54385;53.516;49.456;2023-06-22T01:21:03;2.83;;;1.52;;
67554;SDS011;54385;53.516;49.456;2023-06-22T01:23:53;3.60;;;1.67;;
67554;SDS011;54385;53.516;49.456;2023-06-22T01:29:22;3.63;;;1.70;;
67554;SDS011;54385;53.516;49.456;2023-06-22T01:31:54;2.55;;;1.70;;
67554;SDS011;54385;53.516;49.456;2023-06-22T01:34:22;3.25;;;1.80;;
67554;SDS011;54385;53.516;49.456;2023-06-22T01:36:50;3.42;;;1.70;;
67554;SDS011;54385;53.516;49.456;2023-06-22T01:39:18;2.72;;;1.55;;
67554;SDS011;54385;53.516;49.456;2023-06-22T01:41:47;3.40;;;1.75;;
67554;SDS011;54385;53.516;49.456;2023-06-22T01:44:15;4.00;;;1.52;;
67554;SDS011;54385;53.516;49.456;2023-06-22T01:46:43;3.83;;;1.77;;
67554;SDS011;54385;53.516;49.456;2023-06-22T01:49:11;3.25;;;1.60;;
67554;SDS011;54385;53.516;49.456;2023-06-22T01:51:39;3.83;;;1.70;;
67554;SDS011;54385;53.516;49.456;2023-06-22T01:54:06;4.60;;;2.00;;
67554;SDS011;54385;53.516;49.456;2023-06-22T01:56:37;3.72;;;1.90;;
67554;SDS011;54385;53.516;49.456;2023-06-22T01:59:09;2.88;;;1.40;;
67554;SDS011;54385;53.516;49.456;2023-06-22T02:01:47;3.33;;;1.65;;
67554;SDS011;54385;53.516;49.456;2023-06-22T02:04:21;3.65;;;1.63;;
67554;SDS011;54385;53.516;49.456;2023-06-22T02:06:56;3.30;;;1.65;;
67554;SDS011;54385;53.516;49.456;2023-06-22T02:09:26;2.90;;;1.50;;
67554;SDS011;54385;53.516;49.456;2023-06-22T02:11:58;2.63;;;1.42;;
67554;SDS011;54385;53.516;49.456;2023-06-22T02:14:28;2.92;;;1.58;;
67554;SDS011;54385;53.516;49.456;2023-06-22T02:16:59;3.00;;;1.60;;
67554;SDS011;54385;53.516;49.456;2023-06-22T02:19:26;2.45;;;1.50;;
67554;SDS011;54385;53.516;49.456;2023-06-22T02:21:53;2.78;;;1.30;;
67554;SDS011;54385;53.516;49.456;2023-06-22T02:24:20;2.60;;;1.40;;
67554;SDS011;54385;53.516;49.456;2023-06-22T02:27:00;2.65;;;1.50;;
67554;SDS011;54385;53.516;49.456;2023-06-22T02:29:28;2.65;;;1.50;;
67554;SDS011;54385;53.516;49.456;2023-06-22T02:31:55;2.47;;;1.55;;
67554;SDS011;54385;53.516;49.456;2023-06-22T02:34:22;3.30;;;1.58;;
67554;SDS011;54385;53.516;49.456;2023-06-22T02:36:49;2.97;;;1.75;;
67554;SDS011;54385;53.516;49.456;2023-06-22T02:39:23;2.75;;;1.52;;
67554;SDS011;54385;53.516;49.456;2023-06-22T02:41:51;2.38;;;1.42;;
67554;SDS011;54385;53.516;49.456;2023-06-22T02:44:19;2.88;;;1.48;;
67554;SDS011;54385;53.516;49.456;2023-06-22T02:46:47;2.13;;;1.17;;
67554;SDS011;54385;53.516;49.456;2023-06-22T02:49:20;3.90;;;1.35;;
67554;SDS011;54385;53.516;49.456;2023-06-22T02:51:47;2.60;;;1.75;;
67554;SDS011;54385;53.516;49.456;2023-06-22T02:54:14;4.00;;;1.55;;
67554;SDS011;54385;53.516;49.456;2023-06-22T02:56:42;3.13;;;1.60;;
67554;SDS011;54385;53.516;49.456;2023-06-22T02:59:12;2.85;;;1.70;;
67554;SDS011;54385;53.516;49.456;2023-06-22T03:01:39;3.30;;;1.73;;
67554;SDS011;54385;53.516;49.456;2023-06-22T03:04:06;2.97;;;1.60;;
67554;SDS011;54385;53.516;49.456;2023-06-22T03:06:36;2.85;;;1.50;;
67554;SDS011;54385;53.516;49.456;2023-06-22T03:09:08;4.32;;;1.80;;
67554;SDS011;54385;53.516;49.456;2023-06-22T03:11:50;3.83;;;1.60;;
67554;SDS011;54385;53.516;49.456;2023-06-22T03:14:22;4.88;;;1.75;;
67554;SDS011;54385;53.516;49.456;2023-06-22T03:17:03;3.67;;;1.58;;
67554;SDS011;54385;53.516;49.456;2023-06-22T03:19:33;3.10;;;1.45;;
67554;SDS011;54385;53.516;49.456;2023-06-22T03:22:03;3.10;;;1.65;;
67554;SDS011;54385;53.516;49.456;2023-06-22T03:24:36;2.42;;;1.52;;
67554;SDS011;54385;53.516;49.456;2023-06-22T03:27:09;4.70;;;1.60;;
67554;SDS011;54385;53.516;49.456;2023-06-22T03:29:45;3.67;;;1.50;;
67554;SDS011;54385;53.516;49.456;2023-06-22T03:32:37;3.08;;;1.52;;
67554;SDS011;54385;53.516;49.456;2023-06-22T03:35:35;5.15;;;1.73;;
67554;SDS011;54385;53.516;49.456;2023-06-22T03:41:24;3.70;;;1.52;;
67554;SDS011;54385;53.516;49.456;2023-06-22T03:45:11;2.22;;;1.33;;
67554;SDS011;54385;53.516;49.456;2023-06-22T03:51:12;7.55;;;1.80;;
67554;SDS011;54385;53.516;49.456;2023-06-22T03:54:16;4.13;;;1.38;;
67554;SDS011;54385;53.516;49.456;2023-06-22T03:56:56;2.30;;;1.23;;
67554;SDS011;54385;53.516;49.456;2023-06-22T03:59:42;4.18;;;1.77;;
67554;SDS011;54385;53.516;49.456;2023-06-22T04:02:25;2.38;;;1.20;;
67554;SDS011;54385;53.516;49.456;2023-06-22T04:05:15;5.00;;;1.45;;
67554;SDS011;54385;53.516;49.456;2023-06-22T04:07:44;3.20;;;1.30;;
67554;SDS011;54385;53.516;49.456;2023-06-22T04:13:07;6.65;;;1.48;;
67554;SDS011;54385;53.516;49.456;2023-06-22T04:15:33;1.90;;;1.02;;
67554;SDS011;54385;53.516;49.456;2023-06-22T04:18:03;3.15;;;1.33;;
67554;SDS011;54385;53.516;49.456;2023-06-22T04:20:31;3.67;;;1.52;;
67554;SDS011;54385;53.516;49.456;2023-06-22T04:22:58;8.13;;;1.80;;
67554;SDS011;54385;53.516;49.456;2023-06-22T04:25:29;6.07;;;1.55;;
67554;SDS011;54385;53.516;49.456;2023-06-22T04:27:56;6.75;;;1.60;;
67554;SDS011;54385;53.516;49.456;2023-06-22T04:30:23;4.70;;;1.60;;
67554;SDS011;54385;53.516;49.456;2023-06-22T04:32:50;3.72;;;1.40;;
67554;SDS011;54385;53.516;49.456;2023-06-22T04:35:28;6.45;;;1.52;;
67554;SDS011;54385;53.516;49.456;2023-06-22T04:37:58;5.18;;;1.35;;
67554;SDS011;54385;53.516;49.456;2023-06-22T04:40:27;8.05;;;1.45;;
67554;SDS011;54385;53.516;49.456;2023-06-22T04:43:02;12.25;;;2.00;;
67554;SDS011;54385;53.516;49.456;2023-06-22T04:45:39;3.28;;;1.45;;
67554;SDS011;54385;53.516;49.456;2023-06-22T04:48:07;6.97;;;1.67;;
67554;SDS011;54385;53.516;49.456;2023-06-22T04:50:38;3.47;;;1.60;;
67554;SDS011;54385;53.516;49.456;2023-06-22T04:53:05;4.55;;;1.65;;
67554;SDS011;54385;53.516;49.456;2023-06-22T04:55:36;4.18;;;1.60;;
67554;SDS011;54385;53.516;49.456;2023-06-22T04:58:10;4.25;;;1.40;;
67554;SDS011;54385;53.516;49.456;2023-06-22T05:01:11;2.67;;;1.30;;
67554;SDS011;54385;53.516;49.456;2023-06-22T05:03:57;5.90;;;2.08;;
67554;SDS011;54385;53.516;49.456;2023-06-22T05:06:40;4.82;;;1.48;;
67554;SDS011;54385;53.516;49.456;2023-06-22T05:09:07;3.33;;;1.80;;
67554;SDS011;54385;53.516;49.456;2023-06-22T05:11:37;6.25;;;2.17;;
67554;SDS011;54385;53.516;49.456;2023-06-22T05:14:22;5.72;;;2.10;;
67554;SDS011;54385;53.516;49.456;2023-06-22T05:16:55;5.50;;;2.00;;
67554;SDS011;54385;53.516;49.456;2023-06-22T05:19:27;3.97;;;1.88;;
67554;SDS011;54385;53.516;49.456;2023-06-22T05:22:08;5.55;;;2.35;;
67554;SDS011;54385;53.516;49.456;2023-06-22T05:24:47;7.13;;;2.28;;
67554;SDS011;54385;53.516;49.456;2023-06-22T05:27:16;4.32;;;1.90;;
67554;SDS011;54385;53.516;49.456;2023-06-22T05:29:47;3.92;;;1.80;;
67554;SDS011;54385;53.516;49.456;2023-06-22T05:39:15;2.72;;;1.80;;
67554;SDS011;54385;53.516;49.456;2023-06-22T05:42:18;3.17;;;1.70;;
67554;SDS011;54385;53.516;49.456;2023-06-22T05:44:58;5.10;;;2.10;;
67554;SDS011;54385;53.516;49.456;2023-06-22T05:47:25;5.53;;;1.92;;
67554;SDS011;54385;53.516;49.456;2023-06-22T05:50:01;4.75;;;1.70;;
67554;SDS011;54385;53.516;49.456;2023-06-22T05:52:35;3.92;;;1.70;;
67554;SDS011;54385;53.516;49.456;2023-06-22T05:58:23;4.05;;;1.90;;
67554;SDS011;54385;53.516;49.456;2023-06-22T06:00:53;2.42;;;1.52;;
67554;SDS011;54385;53.516;49.456;2023-06-22T06:03:30;4.05;;;1.80;;
67554;SDS011;54385;53.516;49.456;2023-06-22T06:05:59;4.07;;;1.88;;
67554;SDS011;54385;53.516;49.456;2023-06-22T06:08:39;5.85;;;1.95;;
67554;SDS011;54385;53.516;49.456;2023-06-22T06:11:05;7.05;;;2.00;;
67554;SDS011;54385;53.516;49.456;2023-06-22T06:13:33;3.10;;;1.75;;
67554;SDS011;54385;53.516;49.456;2023-06-22T06:16:11;4.20;;;1.80;;
67554;SDS011;54385;53.516;49.456;2023-06-22T06:18:41;3.22;;;1.60;;
67554;SDS011;54385;53.516;49.456;2023-06-22T06:21:11;3.10;;;1.60;;
67554;SDS011;54385;53.516;49.456;2023-06-22T06:23:40;4.20;;;1.77;;
67554;SDS011;54385;53.516;49.456;2023-06-22T06:26:08;3.83;;;1.80;;
67554;SDS011;54385;53.516;49.456;2023-06-22T06:28:49;4.13;;;1.88;;
67554;SDS011;54385;53.516;49.456;2023-06-22T06:31:21;3.70;;;2.42;;
67554;SDS011;54385;53.516;49.456;2023-06-22T06:33:58;4.95;;;1.90;;
67554;SDS011;54385;53.516;49.456;2023-06-22T06:36:25;2.78;;;1.63;;
67554;SDS011;54385;53.516;49.456;2023-06-22T06:38:52;3.67;;;1.50;;
67554;SDS011;54385;53.516;49.456;2023-06-22T06:41:19;3.30;;;1.50;;
67554;SDS011;54385;53.516;49.456;2023-06-22T06:43:47;4.15;;;1.77;;
67554;SDS011;54385;53.516;49.456;2023-06-22T06:46:14;3.05;;;1.73;;
67554;SDS011;54385;53.516;49.456;2023-06-22T06:51:58;3.70;;;1.80;;
67554;SDS011;54385;53.516;49.456;2023-06-22T06:54:25;2.05;;;1.52;;
67554;SDS011;54385;53.516;49.456;2023-06-22T06:56:56;3.40;;;1.58;;
67554;SDS011;54385;53.516;49.456;2023-06-22T06:59:57;1.80;;;1.25;;
67554;SDS011;54385;53.516;49.456;2023-06-22T07:02:57;3.10;;;1.80;;
67554;SDS011;54385;53.516;49.456;2023-06-22T07:05:36;3.70;;;1.65;;
67554;SDS011;54385;53.516;49.456;2023-06-22T07:08:12;3.78;;;1.83;;
67554;SDS011;54385;53.516;49.456;2023-06-22T07:11:15;4.38;;;1.98;;
67554;SDS011;54385;53.516;49.456;2023-06-22T07:13:51;3.42;;;1.73;;
67554;SDS011;54385;53.516;49.456;2023-06-22T07:17:12;2.80;;;1.40;;
67554;SDS011;54385;53.516;49.456;2023-06-22T07:19:43;2.08;;;1.58;;
67554;SDS011;54385;53.516;49.456;2023-06-22T07:22:22;3.28;;;2.00;;
67554;SDS011;54385;53.516;49.456;2023-06-22T07:24:53;2.28;;;1.40;;
67554;SDS011;54385;53.516;49.456;2023-06-22T07:27:23;3.47;;;1.67;;
67554;SDS011;54385;53.516;49.456;2023-06-22T07:29:53;2.42;;;1.40;;
67554;SDS011;54385;53.516;49.456;2023-06-22T07:32:24;3.30;;;1.55;;
67554;SDS011;54385;53.516;49.456;2023-06-22T07:34:51;2.33;;;1.42;;
67554;SDS011;54385;53.516;49.456;2023-06-22T07:37:25;3.10;;;1.67;;
67554;SDS011;54385;53.516;49.456;2023-06-22T07:40:01;2.33;;;1.45;;
67554;SDS011;54385;53.516;49.456;2023-06-22T07:42:36;4.30;;;1.50;;
67554;SDS011;54385;53.516;49.456;2023-06-22T07:45:16;2.63;;;1.55;;
67554;SDS011;54385;53.516;49.456;2023-06-22T07:47:49;3.47;;;1.60;;
67554;SDS011;54385;53.516;49.456;2023-06-22T07:50:19;3.58;;;1.60;;
67554;SDS011;54385;53.516;49.456;2023-06-22T07:52:53;2.80;;;1.40;;
67554;SDS011;54385;53.516;49.456;2023-06-22T07:55:33;2.67;;;1.90;;
67554;SDS011;54385;53.516;49.456;2023-06-22T07:58:14;2.60;;;1.63;;
67554;SDS011;54385;53.516;49.456;2023-06-22T08:01:02;1.92;;;1.40;;
67554;SDS011;54385;53.516;49.456;2023-06-22T08:04:13;3.63;;;1.60;;
67554;SDS011;54385;53.516;49.456;2023-06-22T08:06:42;2.28;;;1.70;;
67554;SDS011;54385;53.516;49.456;2023-06-22T08:09:42;4.63;;;1.83;;
67554;SDS011;54385;53.516;49.456;2023-06-22T08:12:48;2.45;;;1.63;;
67554;SDS011;54385;53.516;49.456;2023-06-22T08:16:25;5.15;;;1.90;;
67554;SDS011;54385;53.516;49.456;2023-06-22T08:18:55;2.47;;;1.60;;
67554;SDS011;54385;53.516;49.456;2023-06-22T08:21:22;3.47;;;2.38;;
67554;SDS011;54385;53.516;49.456;2023-06-22T08:23:54;4.32;;;1.95;;
67554;SDS011;54385;53.516;49.456;2023-06-22T08:30:44;3.85;;;2.00;;
67554;SDS011;54385;53.516;49.456;2023-06-22T08:37:30;2.97;;;2.10;;
67554;SDS011;54385;53.516;49.456;2023-06-22T08:43:54;4.00;;;2.28;;
67554;SDS011;54385;53.516;49.456;2023-06-22T08:46:14;4.57;;;2.00;;
67554;SDS011;54385;53.516;49.456;2023-06-22T08:50:07;4.57;;;2.70;;
67554;SDS011;54385;53.516;49.456;2023-06-22T08:52:49;3.67;;;2.50;;
67554;SDS011;54385;53.516;49.456;2023-06-22T08:55:28;5.32;;;2.72;;
67554;SDS011;54385;53.516;49.456;2023-06-22T08:57:58;5.20;;;2.67;;
67554;SDS011;54385;53.516;49.456;2023-06-22T09:00:25;3.33;;;2.67;;
67554;SDS011;54385;53.516;49.456;2023-06-22T09:02:56;3.28;;;2.63;;
67554;SDS011;54385;53.516;49.456;2023-06-22T09:05:24;4.28;;;2.45;;
67554;SDS011;54385;53.516;49.456;2023-06-22T09:07:54;3.35;;;2.67;;
67554;SDS011;54385;53.516;49.456;2023-06-22T09:10:26;5.22;;;2.63;;
67554;SDS011;54385;53.516;49.456;2023-06-22T09:12:57;4.95;;;2.78;;
67554;SDS011;54385;53.516;49.456;2023-06-22T09:15:24;3.45;;;2.45;;
67554;SDS011;54385;53.516;49.456;2023-06-22T09:17:51;3.83;;;2.70;;
67554;SDS011;54385;53.516;49.456;2023-06-22T09:20:22;4.97;;;2.40;;
67554;SDS011;54385;53.516;49.456;2023-06-22T09:22:49;3.15;;;2.50;;
67554;SDS011;54385;53.516;49.456;2023-06-22T09:25:19;3.00;;;2.17;;
67554;SDS011;54385;53.516;49.456;2023-06-22T09:27:47;3.70;;;2.45;;
67554;SDS011;54385;53.516;49.456;2023-06-22T09:30:17;3.97;;;2.50;;
67554;SDS011;54385;53.516;49.456;2023-06-22T09:35:52;3.40;;;2.38;;
67554;SDS011;54385;53.516;49.456;2023-06-22T09:38:20;3.88;;;2.45;;
67554;SDS011;54385;53.516;49.456;2023-06-22T09:40:47;3.20;;;2.28;;
67554;SDS011;54385;53.516;49.456;2023-06-22T09:43:14;3.72;;;2.40;;
67554;SDS011;54385;53.516;49.456;2023-06-22T09:45:40;4.85;;;2.40;;
67554;SDS011;54385;53.516;49.456;2023-06-22T09:48:16;3.53;;;2.20;;
67554;SDS011;54385;53.516;49.456;2023-06-22T09:50:43;4.15;;;2.20;;
67554;SDS011;54385;53.516;49.456;2023-06-22T09:53:11;4.18;;;2.10;;
67554;SDS011;54385;53.516;49.456;2023-06-22T09:55:39;7.53;;;2.58;;
67554;SDS011;54385;53.516;49.456;2023-06-22T09:58:09;3.15;;;2.22;;
67554;SDS011;54385;53.516;49.456;2023-06-22T10:00:36;9.52;;;2.13;;
67554;SDS011;54385;53.516;49.456;2023-06-22T10:03:07;2.80;;;1.20;;
67554;SDS011;54385;53.516;49.456;2023-06-22T10:05:35;2.03;;;0.93;;
67554;SDS011;54385;53.516;49.456;2023-06-22T10:11:50;3.40;;;1.00;;
67554;SDS011;54385;53.516;49.456;2023-06-22T10:14:19;2.17;;;1.02;;
67554;SDS011;54385;53.516;49.456;2023-06-22T10:16:46;2.42;;;1.05;;
67554;SDS011;54385;53.516;49.456;2023-06-22T10:19:13;1.50;;;1.00;;
67554;SDS011;54385;53.516;49.456;2023-06-22T10:21:43;1.40;;;1.02;;
67554;SDS011;54385;53.516;49.456;2023-06-22T10:26:47;1.35;;;1.02;;
67554;SDS011;54385;53.516;49.456;2023-06-22T10:29:16;1.67;;;1.05;;
67554;SDS011;54385;53.516;49.456;2023-06-22T10:31:46;2.75;;;1.38;;
67554;SDS011;54385;53.516;49.456;2023-06-22T10:45:21;2.38;;;1.10;;
67554;SDS011;54385;53.516;49.456;2023-06-22T10:48:48;1.60;;;1.10;;
67554;SDS011;54385;53.516;49.456;2023-06-22T12:37:02;2.22;;;1.13;;
67554;SDS011;54385;53.516;49.456;2023-06-22T12:40:59;1.13;;;1.02;;
67554;SDS011;54385;53.516;49.456;2023-06-22T13:46:36;2.67;;;1.20;;
67554;SDS011;54385;53.516;49.456;2023-06-22T13:50:31;2.53;;;1.42;;
67554;SDS011;54385;53.516;49.456;2023-06-22T14:12:40;1.20;;;1.00;;
67554;SDS011;54385;53.516;49.456;2023-06-22T15:47:12;1.90;;;1.30;;
67554;SDS011;54385;53.516;49.456;2023-06-22T15:51:01;2.38;;;1.25;;
67554;SDS011;54385;53.516;49.456;2023-06-22T15:55:07;1.73;;;1.20;;
67554;SDS011;54385;53.516;49.456;2023-06-22T16:06:26;1.73;;;1.23;;
67554;SDS011;54385;53.516;49.456;2023-06-22T16:09:48;1.40;;;1.00;;
67554;SDS011;54385;53.516;49.456;2023-06-22T16:13:53;1.10;;;1.00;;
67554;SDS011;54385;53.516;49.456;2023-06-22T16:17:15;2.38;;;1.10;;
67554;SDS011;54385;53.516;49.456;2023-06-22T16:21:10;2.38;;;1.25;;
67554;SDS011;54385;53.516;49.456;2023-06-22T16:24:40;2.08;;;1.08;;
67554;SDS011;54385;53.516;49.456;2023-06-22T16:32:53;1.55;;;1.00;;
67554;SDS011;54385;53.516;49.456;2023-06-22T16:35:58;1.40;;;1.10;;
67554;SDS011;54385;53.516;49.456;2023-06-22T16:43:45;1.77;;;1.20;;
67554;SDS011;54385;53.516;49.456;2023-06-22T16:47:03;1.40;;;1.20;;
67554;SDS011;54385;53.516;49.456;2023-06-22T16:51:01;1.30;;;1.00;;
67554;SDS011;54385;53.516;49.456;2023-06-22T17:13:07;1.58;;;1.00;;
